• Join FlightAware (Why Join?)
  • Login
  • US Flag 
06:19AM EDT


 

Airport Tracker/Info


-or-


 

Live Flight TrackerFlight Track Log ✈ N976JW ✈ 02-May-2012 ✈ KGPT - KBHM

Flight Track Log - Related Links

Times and Time Zones

All times are in EDT time to prevent confusion due to time zone crossing. See the N976JW flight status page for this flight to view local times or setup timezone preferences in your user account.

Time Position Orientation Groundspeed Altitude Reporting Facility
EDT Latitude Longitude Course Direction KTS MPH feet Rate Location/Type
06:46PM 30.4562 -89.0355 28° Northeast  Level FlightAware Approximate
06:47PM 30.4986 -89.0055 28° Northeast  Level FlightAware Approximate
06:48PM 30.5345 -88.9657 26° Northeast  Level FlightAware Approximate
06:49PM 30.5769 -88.9357 26° Northeast  Level FlightAware Approximate
06:50PM 30.6192 -88.9056 25° Northeast  Level FlightAware Approximate
06:51PM 30.6560 -88.8689 23° Northeast  Level FlightAware Approximate
06:52PM 30.6985 -88.8390 21° North  Level FlightAware Approximate
06:53PM 30.7409 -88.8091 19° North  Level FlightAware Approximate
06:54PM 30.7833 -88.7791 16° North  Level FlightAware Approximate
06:55PM 30.8292 -88.7579 15° North  Level FlightAware Approximate
06:56PM 30.8715 -88.7276 North  Level FlightAware Approximate
06:57PM 30.9138 -88.6973 346° North  Level FlightAware Approximate
06:58PM 30.9561 -88.6670 291° West  Level FlightAware Approximate
06:59PM 30.9983 -88.6366 248° West  Level FlightAware Approximate
07:00PM 30.9717 -88.7142 15° North 185 213 7,200  Level Houston Center
07:01PM 31.0233 -88.6983 11° North 198 228 7,200 -60 Level Houston Center
07:02PM 31.0733 -88.6869 13° North 198 228 7,100  Descending Houston Center
07:03PM 31.1250 -88.6733 14° North 193 222 7,200  Climbing Houston Center
07:04PM 31.1706 -88.6597 12° North 188 216 7,200  Level Houston Center
07:06PM 31.2758 -88.6344 North 194 223 7,200 -60 Level Memphis Center
07:07PM 31.3217 -88.6261 10° North 194 223 7,100  Descending Memphis Center
07:08PM 31.3717 -88.6156 41° Northeast 182 209 7,200  Climbing Memphis Center
07:09PM 31.4108 -88.5758 34° Northeast 177 204 7,200  Level Memphis Center
07:11PM 31.5033 -88.5031 36° Northeast 184 212 7,200  Level Atlanta Center
07:12PM 31.5464 -88.4661 34° Northeast 179 206 7,200  Level Atlanta Center
07:13PM 31.5892 -88.4317 32° Northeast 184 212 7,200  Level Atlanta Center
07:14PM 31.6322 -88.3997 39° Northeast 184 212 7,200 -60 Level Atlanta Center
07:15PM 31.6711 -88.3625 33° Northeast 184 212 7,100  Descending Atlanta Center
07:16PM 31.7139 -88.3303 34° Northeast 174 200 7,200  Climbing Atlanta Center
07:17PM 31.7547 -88.2981 36° Northeast 174 200 7,200  Level Atlanta Center
07:18PM 31.7975 -88.2611 38° Northeast 174 200 7,200  Level Atlanta Center
07:19PM 31.8386 -88.2239 33° Northeast 174 200 7,200  Level Atlanta Center
07:20PM 31.8814 -88.1917 38° Northeast 174 200 7,200  Level Atlanta Center
07:21PM 31.9222 -88.1544 33° Northeast 179 206 7,200  Level Atlanta Center
07:22PM 31.9672 -88.1197 36° Northeast 179 206 7,200  Level Atlanta Center
07:23PM 32.0081 -88.0850 35° Northeast 179 206 7,200  Level Atlanta Center
07:24PM 32.0531 -88.0478 35° Northeast 179 206 7,200 -60 Level Atlanta Center
07:25PM 32.0958 -88.0128 36° Northeast 179 206 7,100  Descending Atlanta Center
07:26PM 32.1367 -87.9781 34° Northeast 174 200 7,200  Climbing Atlanta Center
07:27PM 32.1775 -87.9453 35° Northeast 174 200 7,100  Descending Atlanta Center
07:28PM 32.2203 -87.9103 37° Northeast 174 200 7,200  Climbing Atlanta Center
07:29PM 32.2589 -87.8753 35° Northeast 174 200 7,200 -60 Level Atlanta Center
07:30PM 32.3017 -87.8403 35° Northeast 174 200 7,100  Descending Atlanta Center
07:31PM 32.3444 -87.8053 38° Northeast 174 200 7,200  Climbing Atlanta Center
07:32PM 32.3853 -87.7675 31° Northeast 174 200 7,100  Descending Atlanta Center
07:33PM 32.4281 -87.7375 36° Northeast 174 200 7,200  Climbing Atlanta Center
07:34PM 32.4686 -87.7022 41° Northeast 174 200 7,200  Level Atlanta Center
07:35PM 32.5117 -87.6572 38° Northeast 187 215 7,200 -60 Level Atlanta Center
07:36PM 32.5503 -87.6217 35° Northeast 187 215 7,100 -300 Descending Atlanta Center
07:37PM 32.5931 -87.5864 37° Northeast 182 209 6,600 -540 Descending Atlanta Center
07:38PM 32.6381 -87.5464 33° Northeast 188 216 6,100 -540 Descending Atlanta Center
07:39PM 32.6744 -87.5183 37° Northeast 197 227 5,600 -480 Descending Atlanta Center
07:40PM 32.7300 -87.4686 37° Northeast 193 222 5,200 -240 Descending Atlanta Center
07:41PM 32.7728 -87.4306 34° Northeast 193 222 5,200  Level Atlanta Center
07:42PM 32.8133 -87.3978 36° Northeast 187 215 5,200  Level Atlanta Center
07:43PM 32.8539 -87.3622 34° Northeast 181 208 5,200  Level Atlanta Center
07:44PM 32.8944 -87.3292 35° Northeast 181 208 5,200  Level Atlanta Center
07:45PM 32.9372 -87.2936 37° Northeast 176 203 5,200  Level Atlanta Center
07:46PM 32.9778 -87.2578 38° Northeast 176 203 5,200  Level Atlanta Center
07:47PM 33.0164 -87.2222 37° Northeast 176 203 5,200  Level Atlanta Center
07:48PM 33.0569 -87.1864 49° Northeast 176 203 5,200  Level Atlanta Center
07:49PM 33.0917 -87.1381 43° Northeast 181 208 5,200  Level Atlanta Center
07:50PM 33.1303 -87.0947 43° Northeast 179 206 5,200  Level Atlanta Center
07:51PM 33.1689 -87.0517 43° Northeast 181 208 5,200  Level Atlanta Center
07:52PM 33.2075 -87.0081 35° Northeast 183 211 5,200  Level Atlanta Center
07:53PM 33.2478 -86.9747 45° Northeast 182 209 5,200  Level Atlanta Center
07:54PM 33.2822 -86.9336 37° Northeast 182 209 5,200  Level Atlanta Center
07:55PM 33.3250 -86.8953 40° Northeast 182 209 5,200  Level Atlanta Center
07:56PM 33.3633 -86.8567 40° Northeast 182 209 5,200 -120 Level Atlanta Center
07:57PM 33.4019 -86.8183 41° Northeast 182 209 5,000 -360 Descending Atlanta Center
07:58PM 33.4444 -86.7747 37° Northeast 194 223 4,500 -420 Descending Atlanta Center
07:59PM 33.4892 -86.7339 25° Northeast 194 223 4,200 -780 Descending Atlanta Center
08:00PM 33.5358 -86.7081 346° North 189 217 3,000 -1,380 Descending Atlanta Center
08:01PM 33.5814 -86.7217 346° North 165 190 1,500 -1,500 Descending Atlanta Center